Time;durP1;ratioP1;P1;durP2;ratioP2;P2;SDS_P1;SDS_P2;PMS_P1;PMS_P2;Temp;Humidity;BMP_temperature;BMP_pressure;BME280_temperature;BME280_humidity;BME280_pressure;Samples;Min_cycle;Max_cycle;Signal;HPM_P1;HPM_P2
2020/12/18 00:00:10;;;;;;;58.47;27.40;;;8.40;59.60;;;;;;5052932;28;20017;-70
2020/12/18 00:02:35;;;;;;;60.30;27.27;;;8.40;59.70;;;;;;5052799;28;20501;-70
2020/12/18 00:05:01;;;;;;;54.78;25.08;;;8.40;59.70;;;;;;5043918;28;20059;-70
2020/12/18 00:07:27;;;;;;;62.00;26.52;;;8.30;59.70;;;;;;5045259;28;20025;-70
2020/12/18 00:09:53;;;;;;;64.70;28.20;;;8.30;59.80;;;;;;5052719;28;20024;-70
2020/12/18 00:12:19;;;;;;;60.90;24.55;;;8.30;59.80;;;;;;5051435;28;20166;-70
2020/12/18 00:14:45;;;;;;;59.22;25.73;;;8.30;59.90;;;;;;5051351;28;20048;-70
2020/12/18 00:17:11;;;;;;;54.00;25.35;;;8.20;59.90;;;;;;5052608;28;20549;-70
2020/12/18 00:19:37;;;;;;;56.78;26.05;;;8.20;60.00;;;;;;5051298;28;20021;-70
2020/12/18 00:22:03;;;;;;;48.92;23.20;;;8.20;60.10;;;;;;5052300;28;20108;-70
2020/12/18 00:24:29;;;;;;;54.78;24.27;;;8.20;60.10;;;;;;5051300;28;20119;-70
2020/12/18 00:26:54;;;;;;;49.83;23.90;;;8.20;60.10;;;;;;5051276;28;20031;-70
2020/12/18 00:29:20;;;;;;;44.38;21.05;;;8.20;60.20;;;;;;5052519;28;20429;-70
2020/12/18 00:31:46;;;;;;;45.17;21.67;;;8.10;60.20;;;;;;5052554;28;20429;-70
2020/12/18 00:34:12;;;;;;;45.63;21.38;;;8.10;60.20;;;;;;5052451;28;20471;-70
2020/12/18 00:36:37;;;;;;;45.67;21.55;;;8.10;60.20;;;;;;5052534;28;20057;-70
2020/12/18 00:39:05;;;;;;;39.35;19.45;;;8.10;60.30;;;;;;5052353;28;20112;-70
2020/12/18 00:41:31;;;;;;;36.42;16.70;;;8.10;60.30;;;;;;5052096;28;20025;-71
2020/12/18 00:43:58;;;;;;;33.03;16.42;;;8.20;60.40;;;;;;5052346;28;20052;-70
2020/12/18 00:46:24;;;;;;;29.00;14.02;;;8.20;60.20;;;;;;5052364;28;20071;-70
2020/12/18 00:48:50;;;;;;;31.10;14.52;;;8.20;60.20;;;;;;5052427;28;20037;-70
2020/12/18 00:51:17;;;;;;;32.88;17.35;;;8.20;60.20;;;;;;5052385;28;20021;-70
2020/12/18 00:53:43;;;;;;;32.20;15.88;;;8.20;60.20;;;;;;5054412;28;20029;-70
2020/12/18 00:56:09;;;;;;;32.22;16.13;;;8.20;60.20;;;;;;5056332;28;20032;-70
2020/12/18 00:58:35;;;;;;;31.55;15.60;;;8.20;60.20;;;;;;5056380;28;20044;-70
2020/12/18 01:01:03;;;;;;;33.25;15.85;;;8.20;60.20;;;;;;5056856;28;20036;-70
2020/12/18 01:03:28;;;;;;;31.40;15.65;;;8.20;60.20;;;;;;5056279;28;20048;-70
2020/12/18 01:05:54;;;;;;;31.52;15.90;;;8.20;60.20;;;;;;5049453;28;20021;-70
2020/12/18 01:08:20;;;;;;;28.10;14.77;;;8.20;60.20;;;;;;5056084;28;20033;-71
2020/12/18 01:10:45;;;;;;;30.38;15.38;;;8.20;60.20;;;;;;5056010;28;20027;-70
2020/12/18 01:13:12;;;;;;;30.50;16.73;;;8.10;60.20;;;;;;5056074;28;20058;-70
2020/12/18 01:15:38;;;;;;;31.90;17.08;;;8.20;60.40;;;;;;5056017;28;20029;-70
2020/12/18 01:18:04;;;;;;;28.42;14.48;;;8.10;60.20;;;;;;5055900;28;20029;-70
2020/12/18 01:20:30;;;;;;;27.13;13.98;;;8.10;60.20;;;;;;5055898;28;20112;-70
2020/12/18 01:22:55;;;;;;;23.20;12.63;;;8.20;60.30;;;;;;5054228;28;20422;-70
2020/12/18 01:25:21;;;;;;;26.23;13.43;;;8.20;60.40;;;;;;5054321;28;20124;-70
2020/12/18 01:27:47;;;;;;;24.75;13.38;;;8.20;60.30;;;;;;5055804;28;20482;-70
2020/12/18 01:30:13;;;;;;;25.73;13.77;;;8.20;60.30;;;;;;5055757;28;20100;-70
2020/12/18 01:32:39;;;;;;;29.73;15.70;;;8.20;60.30;;;;;;5055691;28;20474;-70
2020/12/18 01:35:04;;;;;;;36.15;16.13;;;8.20;60.10;;;;;;5055228;28;20037;-71
2020/12/18 01:37:30;;;;;;;31.20;15.90;;;8.20;60.00;;;;;;5054651;28;20040;-70
2020/12/18 01:39:56;;;;;;;29.38;14.23;;;8.30;60.00;;;;;;5055546;28;20102;-70
2020/12/18 01:42:22;;;;;;;29.67;14.60;;;8.20;59.90;;;;;;5055443;28;20021;-70
2020/12/18 01:44:47;;;;;;;27.13;14.18;;;8.20;60.00;;;;;;5055215;28;20021;-70
2020/12/18 01:47:28;;;;;;;30.50;14.95;;;8.30;60.00;;;;;;5055389;28;20032;-70
2020/12/18 01:49:55;;;;;;;25.30;13.00;;;8.20;60.00;;;;;;5055409;28;20390;-71
2020/12/18 01:52:23;;;;;;;35.72;18.33;;;8.30;60.10;;;;;;5055417;28;20044;-70
2020/12/18 01:54:50;;;;;;;39.35;18.92;;;8.30;60.20;;;;;;5055208;28;20386;-70
2020/12/18 01:57:16;;;;;;;36.30;18.35;;;8.30;60.20;;;;;;5055160;28;20024;-70
2020/12/18 01:59:42;;;;;;;39.75;18.02;;;8.20;60.20;;;;;;5055103;28;20028;-71
2020/12/18 02:02:08;;;;;;;35.60;17.45;;;8.30;60.30;;;;;;5055114;28;20105;-70
2020/12/18 02:04:36;;;;;;;34.15;17.40;;;8.20;60.30;;;;;;5052694;28;20021;-71
2020/12/18 02:07:06;;;;;;;30.45;15.13;;;8.30;60.30;;;;;;5055073;28;20044;-70
2020/12/18 02:09:34;;;;;;;29.00;14.93;;;8.30;60.30;;;;;;5054944;28;20121;-70
2020/12/18 02:12:00;;;;;;;40.15;17.58;;;8.20;60.20;;;;;;5054904;28;20049;-70
2020/12/18 02:14:26;;;;;;;30.65;15.20;;;8.30;60.30;;;;;;5054969;28;20431;-70
2020/12/18 02:16:52;;;;;;;41.40;18.30;;;8.20;60.20;;;;;;5054905;28;20112;-70
2020/12/18 02:19:19;;;;;;;40.95;20.38;;;8.20;60.30;;;;;;5054679;28;20032;-70
2020/12/18 02:21:45;;;;;;;46.08;21.17;;;8.20;60.40;;;;;;5054760;28;20021;-71
2020/12/18 02:24:20;;;;;;;41.35;20.00;;;8.20;60.30;;;;;;5054412;28;20049;-70
2020/12/18 02:26:46;;;;;;;44.55;20.25;;;8.20;60.30;;;;;;5053638;28;20025;-71
2020/12/18 02:29:12;;;;;;;48.05;21.25;;;8.20;60.30;;;;;;5054599;28;20036;-70
2020/12/18 02:31:37;;;;;;;43.00;20.52;;;8.20;60.60;;;;;;5054558;28;20033;-70
2020/12/18 02:34:03;;;;;;;48.97;21.98;;;8.10;60.60;;;;;;5054462;28;20025;-70
2020/12/18 02:36:29;;;;;;;37.15;18.15;;;8.10;60.80;;;;;;5054537;28;20382;-70
2020/12/18 02:39:00;;;;;;;49.72;19.58;;;8.10;60.70;;;;;;5054375;28;20032;-70
2020/12/18 02:41:26;;;;;;;39.15;18.50;;;8.10;60.80;;;;;;5053682;28;20421;-70
2020/12/18 02:43:52;;;;;;;44.13;20.67;;;8.20;60.90;;;;;;5054274;28;20018;-70
2020/12/18 02:46:18;;;;;;;43.20;21.58;;;8.10;60.80;;;;;;5052973;28;20562;-70
2020/12/18 02:48:45;;;;;;;44.83;19.63;;;8.10;60.90;;;;;;5054266;28;20433;-70
2020/12/18 02:51:11;;;;;;;37.72;17.17;;;8.10;60.80;;;;;;5052612;28;20371;-70
2020/12/18 02:53:36;;;;;;;39.13;18.40;;;8.10;60.90;;;;;;5054062;28;20035;-70
2020/12/18 02:56:02;;;;;;;54.75;24.38;;;8.20;61.00;;;;;;5054062;28;20027;-70
2020/12/18 02:58:28;;;;;;;54.92;23.92;;;8.10;61.10;;;;;;5053957;28;20037;-70
2020/12/18 03:00:53;;;;;;;59.30;25.83;;;8.10;61.20;;;;;;5052683;28;20045;-70
2020/12/18 03:03:19;;;;;;;50.15;21.02;;;8.10;61.30;;;;;;5053808;28;20029;-70
2020/12/18 03:05:45;;;;;;;42.05;19.40;;;8.10;61.20;;;;;;5053611;28;20025;-70
2020/12/18 03:08:10;;;;;;;53.78;24.15;;;8.20;61.30;;;;;;5053886;28;20094;-70
2020/12/18 03:10:36;;;;;;;42.90;20.20;;;8.20;61.50;;;;;;5053772;28;20112;-70
2020/12/18 03:13:02;;;;;;;41.45;18.45;;;8.10;61.30;;;;;;5053756;28;20061;-70
2020/12/18 03:15:27;;;;;;;50.50;21.35;;;8.20;61.50;;;;;;5053716;28;20033;-70
2020/12/18 03:17:53;;;;;;;45.92;20.67;;;8.20;61.30;;;;;;5052558;28;20029;-70
2020/12/18 03:20:19;;;;;;;47.92;22.17;;;8.20;61.30;;;;;;5053091;28;20036;-70
2020/12/18 03:22:45;;;;;;;53.08;21.75;;;8.20;61.30;;;;;;5053568;28;20016;-70
2020/12/18 03:25:10;;;;;;;53.75;22.95;;;8.20;61.30;;;;;;5053352;28;20048;-70
2020/12/18 03:27:36;;;;;;;54.42;24.33;;;8.10;61.40;;;;;;5053510;28;20039;-70
2020/12/18 03:30:03;;;;;;;41.35;19.70;;;8.10;61.50;;;;;;5053502;28;20035;-70
2020/12/18 03:32:29;;;;;;;47.00;21.38;;;8.10;61.50;;;;;;5053352;28;20048;-70
2020/12/18 03:34:55;;;;;;;55.17;24.70;;;8.10;61.50;;;;;;5052841;28;20421;-70
2020/12/18 03:37:21;;;;;;;61.15;24.00;;;8.10;62.20;;;;;;5052930;28;20059;-70
2020/12/18 03:39:46;;;;;;;54.85;25.23;;;8.10;62.00;;;;;;5053202;28;20027;-70
2020/12/18 03:42:12;;;;;;;57.35;23.95;;;8.10;62.00;;;;;;5053224;28;20099;-70
2020/12/18 03:44:38;;;;;;;45.22;19.90;;;8.10;62.20;;;;;;5053132;28;20029;-70
2020/12/18 03:47:03;;;;;;;54.97;23.38;;;8.10;62.20;;;;;;5053194;28;20017;-70
2020/12/18 03:49:29;;;;;;;59.75;23.80;;;8.10;62.30;;;;;;5052620;28;20025;-70
2020/12/18 03:51:55;;;;;;;45.13;20.88;;;8.10;62.20;;;;;;5053046;28;20135;-70
2020/12/18 03:54:20;;;;;;;55.28;24.67;;;8.10;62.20;;;;;;5052899;28;20052;-70
2020/12/18 03:56:46;;;;;;;64.00;27.42;;;8.10;62.30;;;;;;5052966;28;20021;-70
2020/12/18 03:59:12;;;;;;;47.30;21.65;;;8.10;62.50;;;;;;5052647;28;20067;-70
2020/12/18 04:01:37;;;;;;;56.45;22.95;;;8.10;62.40;;;;;;5051482;28;20021;-70
2020/12/18 04:04:03;;;;;;;56.47;24.30;;;8.10;62.40;;;;;;5052755;28;20390;-70
2020/12/18 04:06:29;;;;;;;52.65;23.05;;;8.20;62.50;;;;;;5052810;28;20036;-70
2020/12/18 04:08:55;;;;;;;54.10;23.52;;;8.10;62.30;;;;;;5052770;28;20033;-70
2020/12/18 04:11:20;;;;;;;59.42;24.77;;;8.10;62.40;;;;;;5052652;28;20116;-70
2020/12/18 04:13:46;;;;;;;53.53;22.80;;;8.10;62.40;;;;;;5052690;28;20037;-70
2020/12/18 04:16:12;;;;;;;54.85;24.23;;;8.10;62.30;;;;;;5051311;28;20025;-70
2020/12/18 04:18:37;;;;;;;56.05;24.25;;;8.10;62.30;;;;;;5052545;28;20025;-70
2020/12/18 04:21:03;;;;;;;61.70;26.48;;;8.10;62.30;;;;;;5052607;28;20382;-70
2020/12/18 04:23:29;;;;;;;56.05;21.73;;;8.20;62.30;;;;;;5052512;28;20481;-70
2020/12/18 04:25:54;;;;;;;53.20;22.13;;;8.20;62.30;;;;;;5052362;28;20044;-70
2020/12/18 04:28:20;;;;;;;58.13;24.42;;;8.20;62.20;;;;;;5051541;28;20111;-70
2020/12/18 04:30:46;;;;;;;81.28;30.45;;;8.20;62.20;;;;;;5052468;28;20037;-71
2020/12/18 04:33:12;;;;;;;86.68;32.83;;;8.20;62.20;;;;;;5052405;28;20143;-70
2020/12/18 04:35:38;;;;;;;76.43;29.92;;;8.20;62.10;;;;;;5052507;28;20032;-70
2020/12/18 04:38:03;;;;;;;71.93;28.50;;;8.20;62.00;;;;;;5052379;28;20118;-70
2020/12/18 04:40:32;;;;;;;81.95;29.70;;;8.20;62.00;;;;;;5052384;28;20049;-70
2020/12/18 04:42:58;;;;;;;75.38;29.20;;;8.20;62.00;;;;;;5052324;28;20415;-70
2020/12/18 04:45:24;;;;;;;68.65;26.55;;;8.30;62.10;;;;;;5052445;28;20071;-70
2020/12/18 04:47:54;;;;;;;93.00;33.85;;;8.30;62.00;;;;;;5052355;28;20086;-70
2020/12/18 04:50:20;;;;;;;81.60;30.83;;;8.30;62.10;;;;;;5041812;28;20030;-71
2020/12/18 04:52:47;;;;;;;89.93;32.17;;;8.30;61.90;;;;;;5031141;28;20028;-70
2020/12/18 04:55:15;;;;;;;83.18;32.03;;;8.30;61.90;;;;;;5032309;28;20064;-70
2020/12/18 04:57:45;;;;;;;111.38;37.95;;;8.30;61.80;;;;;;5044323;28;20052;-70
2020/12/18 05:00:11;;;;;;;112.20;39.33;;;8.30;61.90;;;;;;5052137;28;20025;-70
2020/12/18 05:02:38;;;;;;;98.40;36.42;;;8.30;61.80;;;;;;5052277;28;20508;-70
2020/12/18 05:05:08;;;;;;;99.00;36.15;;;8.30;61.80;;;;;;5050920;28;20428;-70
2020/12/18 05:07:34;;;;;;;105.85;37.47;;;8.30;61.70;;;;;;5052057;28;20028;-70
2020/12/18 05:10:00;;;;;;;98.07;37.45;;;8.20;61.70;;;;;;5052151;28;20028;-71
2020/12/18 05:12:26;;;;;;;87.93;34.42;;;8.20;61.70;;;;;;5052131;28;20071;-70
2020/12/18 05:14:52;;;;;;;86.22;33.28;;;8.20;61.80;;;;;;5052168;28;20498;-70
2020/12/18 05:17:17;;;;;;;79.13;30.80;;;8.10;61.90;;;;;;5052005;28;20052;-70
2020/12/18 05:19:44;;;;;;;81.30;33.60;;;8.20;62.00;;;;;;5050824;28;20553;-70
2020/12/18 05:22:12;;;;;;;107.47;36.25;;;8.10;61.90;;;;;;5050728;28;20029;-70
2020/12/18 05:24:39;;;;;;;76.72;28.50;;;8.10;62.00;;;;;;5051853;28;20052;-70
2020/12/18 05:27:07;;;;;;;78.15;29.60;;;8.10;62.00;;;;;;5051299;28;20025;-69
2020/12/18 05:29:36;;;;;;;93.38;33.15;;;8.10;62.00;;;;;;5051915;28;20025;-70
2020/12/18 05:32:02;;;;;;;101.90;35.28;;;8.20;62.10;;;;;;5051886;28;20109;-70
2020/12/18 05:34:28;;;;;;;97.47;36.35;;;8.20;62.00;;;;;;5050565;28;20381;-70
2020/12/18 05:36:55;;;;;;;87.80;30.90;;;8.20;62.00;;;;;;5051183;28;20514;-70
2020/12/18 05:39:22;;;;;;;106.57;36.15;;;8.20;62.10;;;;;;5051814;28;20029;-70
2020/12/18 05:42:00;;;;;;;82.30;31.52;;;8.20;62.10;;;;;;5055422;28;20021;-70
2020/12/18 05:44:30;;;;;;;95.00;33.33;;;8.20;62.00;;;;;;5055282;28;20036;-70
2020/12/18 05:47:10;;;;;;;86.88;32.42;;;8.20;61.90;;;;;;5055387;28;20379;-70
2020/12/18 05:49:40;;;;;;;91.05;32.53;;;8.20;61.90;;;;;;5055315;28;20032;-70
2020/12/18 05:52:07;;;;;;;96.10;35.15;;;8.20;61.90;;;;;;5054193;28;20025;-70
2020/12/18 05:54:35;;;;;;;84.15;31.20;;;8.20;61.90;;;;;;5053970;28;20230;-71
2020/12/18 05:57:13;;;;;;;87.28;32.42;;;8.20;61.90;;;;;;5054869;28;20032;-70
2020/12/18 05:59:46;;;;;;;75.72;29.05;;;8.30;61.90;;;;;;5055359;28;20040;-70
2020/12/18 06:02:14;;;;;;;91.13;31.60;;;8.20;61.80;;;;;;5055198;28;20028;-70
2020/12/18 06:04:40;;;;;;;85.88;31.52;;;8.30;61.80;;;;;;5055167;28;20029;-71
2020/12/18 06:07:06;;;;;;;93.22;35.67;;;8.30;61.80;;;;;;5054850;28;20013;-70
2020/12/18 06:09:38;;;;;;;93.90;33.58;;;8.30;61.70;;;;;;5055158;28;20405;-70
2020/12/18 06:12:08;;;;;;;91.07;32.35;;;8.20;61.60;;;;;;5054743;28;20025;-70
2020/12/18 06:14:34;;;;;;;82.03;30.13;;;8.30;61.70;;;;;;5054845;28;20021;-71
2020/12/18 06:17:09;;;;;;;73.55;27.30;;;8.30;61.60;;;;;;5054774;28;20098;-70
2020/12/18 06:19:38;;;;;;;94.68;33.05;;;8.30;61.60;;;;;;5054714;28;20075;-70
2020/12/18 06:22:12;;;;;;;84.65;32.00;;;8.30;61.70;;;;;;5054848;28;20017;-70
2020/12/18 06:24:42;;;;;;;78.47;30.05;;;8.20;61.60;;;;;;5053326;28;20037;-70
2020/12/18 06:27:12;;;;;;;94.97;36.22;;;8.20;61.60;;;;;;5054498;28;20119;-70
2020/12/18 06:29:38;;;;;;;87.72;32.53;;;8.20;61.50;;;;;;5053262;28;20056;-70
2020/12/18 06:32:27;;;;;;;87.35;32.00;;;8.20;61.50;;;;;;5054476;28;20474;-70
2020/12/18 06:34:54;;;;;;;82.18;31.13;;;8.20;61.60;;;;;;5054177;28;20020;-70
2020/12/18 06:37:31;;;;;;;92.57;31.42;;;8.20;61.50;;;;;;5054129;28;20052;-70
2020/12/18 06:39:58;;;;;;;93.50;34.35;;;8.20;61.40;;;;;;5054376;28;20100;-70
2020/12/18 06:42:25;;;;;;;103.05;34.28;;;8.20;61.30;;;;;;5054353;28;20021;-71
2020/12/18 06:44:59;;;;;;;92.70;31.92;;;8.20;61.30;;;;;;5054283;28;20024;-70
2020/12/18 06:47:24;;;;;;;89.95;32.83;;;8.10;61.30;;;;;;5054341;28;20377;-70
2020/12/18 06:49:57;;;;;;;88.72;32.42;;;8.10;61.40;;;;;;5049553;28;20104;-70
2020/12/18 06:52:43;;;;;;;93.10;31.00;;;8.00;61.40;;;;;;5049500;28;20045;-70
2020/12/18 06:55:33;;;;;;;90.22;31.83;;;8.00;61.50;;;;;;5034133;28;20390;-70
2020/12/18 06:58:08;;;;;;;87.43;30.35;;;8.00;61.50;;;;;;5040747;28;20032;-70
2020/12/18 07:00:48;;;;;;;79.03;29.40;;;7.90;61.50;;;;;;5042359;28;20070;-70
2020/12/18 07:03:46;;;;;;;91.28;30.77;;;7.90;61.60;;;;;;5053888;28;20075;-70
2020/12/18 07:06:28;;;;;;;73.38;23.92;;;7.90;61.70;;;;;;5052535;28;20503;-70
2020/12/18 07:08:55;;;;;;;68.82;25.92;;;7.90;61.70;;;;;;5053969;28;20501;-70
2020/12/18 07:11:21;;;;;;;72.40;26.50;;;7.90;61.80;;;;;;5052502;28;20067;-70
2020/12/18 07:13:51;;;;;;;76.20;26.27;;;7.90;61.90;;;;;;5053737;28;20060;-70
2020/12/18 07:16:26;;;;;;;72.60;26.80;;;8.00;62.10;;;;;;5053789;28;20021;-70
2020/12/18 07:18:55;;;;;;;;;;;8.00;62.00;;;;;;5054013;28;20025;-70
2020/12/18 07:21:20;;;;;;;78.75;28.83;;;8.10;61.90;;;;;;5053623;28;20391;-71
2020/12/18 07:23:52;;;;;;;86.15;30.05;;;8.10;61.70;;;;;;5053329;28;20051;-71
2020/12/18 07:26:19;;;;;;;101.88;35.13;;;8.10;61.80;;;;;;5053641;28;20025;-70
2020/12/18 07:28:45;;;;;;;101.03;33.25;;;8.10;61.80;;;;;;5053254;28;20108;-70
2020/12/18 07:31:26;;;;;;;79.75;28.58;;;8.10;61.70;;;;;;5053221;28;20037;-70
2020/12/18 07:33:53;;;;;;;81.30;28.67;;;8.10;61.80;;;;;;5051986;28;20033;-70
2020/12/18 07:36:20;;;;;;;96.68;34.00;;;8.10;61.80;;;;;;5052717;28;20100;-70
2020/12/18 07:38:45;;;;;;;97.90;33.38;;;8.20;62.00;;;;;;5053113;28;20040;-70
2020/12/18 07:41:15;;;;;;;107.68;32.35;;;8.20;61.90;;;;;;5053168;28;20378;-70
2020/12/18 07:43:43;;;;;;;85.10;29.95;;;8.20;61.90;;;;;;5052931;28;20390;-70
2020/12/18 07:46:11;;;;;;;98.65;33.55;;;8.20;61.90;;;;;;5053091;28;20078;-70
2020/12/18 07:48:41;;;;;;;105.57;34.40;;;8.20;61.90;;;;;;5053254;28;20017;-70
2020/12/18 07:51:18;;;;;;;101.75;31.73;;;8.30;61.90;;;;;;5036141;28;20418;-70
2020/12/18 07:53:45;;;;;;;99.88;34.53;;;8.20;61.80;;;;;;5033132;28;20033;-70
2020/12/18 07:56:16;;;;;;;118.00;37.97;;;8.30;62.00;;;;;;5036400;28;20017;-70
2020/12/18 07:59:04;;;;;;;104.32;34.58;;;8.30;61.90;;;;;;5051023;28;20482;-70
2020/12/18 08:01:32;;;;;;;113.43;36.20;;;8.30;61.90;;;;;;5060272;28;20024;-70
2020/12/18 08:04:02;;;;;;;110.05;37.03;;;8.30;61.90;;;;;;5053531;28;20025;-70
2020/12/18 08:06:35;;;;;;;112.68;36.10;;;8.40;61.90;;;;;;5052817;28;20485;-70
2020/12/18 08:09:02;;;;;;;117.30;35.85;;;8.40;61.90;;;;;;5051351;28;20029;-71
2020/12/18 08:11:30;;;;;;;108.70;32.78;;;8.40;61.80;;;;;;5052222;28;20316;-70
2020/12/18 08:13:58;;;;;;;96.50;30.92;;;8.40;61.90;;;;;;5061130;28;20112;-70
2020/12/18 08:16:28;;;;;;;105.82;33.05;;;8.40;62.10;;;;;;5043664;28;20549;-71
2020/12/18 08:18:58;;;;;;;100.80;30.60;;;8.40;62.20;;;;;;5048622;28;20068;-70
2020/12/18 08:21:32;;;;;;;94.20;32.40;;;8.40;62.20;;;;;;5046977;28;20024;-70
2020/12/18 08:24:30;;;;;;;96.13;32.08;;;8.50;62.30;;;;;;5050189;28;20334;-71
2020/12/18 08:27:22;;;;;;;118.70;35.53;;;8.50;62.20;;;;;;5031219;28;20026;-71
2020/12/18 08:29:49;;;;;;;112.13;33.90;;;8.50;62.20;;;;;;5045340;28;20037;-71
2020/12/18 08:32:28;;;;;;;98.88;31.80;;;8.60;62.60;;;;;;5052297;28;20028;-70
2020/12/18 08:35:07;;;;;;;95.18;29.58;;;8.50;62.30;;;;;;5052376;28;20076;-70
2020/12/18 08:37:34;;;;;;;83.05;26.67;;;8.60;62.30;;;;;;5052187;28;20502;-70
2020/12/18 08:40:00;;;;;;;95.28;27.63;;;8.60;62.40;;;;;;5052393;28;20020;-70
2020/12/18 08:42:26;;;;;;;94.25;31.73;;;8.60;62.50;;;;;;5054685;28;20037;-70
2020/12/18 08:44:52;;;;;;;85.30;28.08;;;8.70;62.40;;;;;;5050919;28;20055;-71
2020/12/18 08:47:25;;;;;;;82.60;26.90;;;8.70;62.20;;;;;;5049717;28;20025;-71
2020/12/18 08:49:53;;;;;;;74.95;26.23;;;8.70;62.20;;;;;;5049935;28;20032;-71
2020/12/18 08:52:29;;;;;;;101.30;30.02;;;8.80;62.20;;;;;;5043815;28;20025;-71
2020/12/18 08:55:03;;;;;;;89.05;31.27;;;8.80;62.10;;;;;;5045765;28;20578;-71
2020/12/18 08:57:30;;;;;;;115.18;32.30;;;8.80;62.00;;;;;;5040660;28;20033;-70
2020/12/18 09:00:08;;;;;;;112.80;34.42;;;8.80;62.00;;;;;;5051946;28;20025;-71
2020/12/18 09:02:39;;;;;;;98.75;31.00;;;8.80;61.60;;;;;;5032328;28;20021;-71
2020/12/18 09:05:23;;;;;;;104.60;31.83;;;8.80;61.50;;;;;;5047766;28;20021;-70
2020/12/18 09:07:52;;;;;;;91.38;29.88;;;8.80;61.70;;;;;;5051982;28;20375;-71
2020/12/18 09:10:35;;;;;;;88.15;28.67;;;8.80;61.70;;;;;;5051864;28;20025;-71
2020/12/18 09:13:31;;;;;;;85.30;28.05;;;8.80;61.80;;;;;;5061484;28;20043;-70
2020/12/18 09:16:03;;;;;;;93.95;30.35;;;8.80;61.70;;;;;;5056862;28;20037;-70
2020/12/18 09:18:31;;;;;;;91.53;29.45;;;8.80;61.70;;;;;;5052661;28;20435;-71
2020/12/18 09:21:12;;;;;;;84.95;26.83;;;8.90;61.70;;;;;;5035836;28;20473;-71
2020/12/18 09:23:37;;;;;;;78.30;28.13;;;8.90;61.60;;;;;;5040449;28;20061;-70
2020/12/18 09:26:04;;;;;;;96.53;31.58;;;8.90;61.60;;;;;;5048727;28;20473;-70
2020/12/18 09:28:40;;;;;;;103.97;34.20;;;8.90;61.50;;;;;;5051008;28;20120;-71
2020/12/18 09:31:08;;;;;;;102.68;33.50;;;8.90;61.00;;;;;;5072339;28;20486;-70
2020/12/18 09:33:37;;;;;;;94.82;31.50;;;9.00;61.00;;;;;;5075440;28;20033;-70
2020/12/18 09:36:05;;;;;;;96.18;32.13;;;9.00;60.80;;;;;;5075210;28;20031;-71
2020/12/18 09:38:32;;;;;;;92.75;31.30;;;9.00;60.60;;;;;;5076055;28;20074;-70
2020/12/18 09:41:00;;;;;;;76.53;27.52;;;9.00;60.60;;;;;;5068860;28;20017;-71
2020/12/18 09:43:27;;;;;;;85.55;29.17;;;9.00;60.70;;;;;;5053831;28;20078;-71
2020/12/18 09:45:54;;;;;;;89.82;31.38;;;9.00;60.70;;;;;;5055591;28;20033;-70
2020/12/18 09:48:19;;;;;;;96.30;32.33;;;9.10;60.70;;;;;;5055785;28;20025;-71
2020/12/18 09:50:45;;;;;;;93.20;32.45;;;9.10;60.50;;;;;;5056129;28;20486;-72
2020/12/18 09:53:11;;;;;;;91.05;31.23;;;9.10;60.30;;;;;;5056082;28;20032;-71
2020/12/18 09:55:37;;;;;;;98.57;32.47;;;9.10;60.20;;;;;;5056019;28;20025;-71
2020/12/18 09:58:03;;;;;;;96.30;32.55;;;9.10;60.20;;;;;;5056030;28;20028;-71
2020/12/18 10:00:30;;;;;;;85.38;29.33;;;9.10;60.00;;;;;;5049089;28;20025;-71
2020/12/18 10:02:56;;;;;;;80.38;26.85;;;9.10;59.90;;;;;;5049713;28;20017;-71
2020/12/18 10:05:23;;;;;;;73.45;27.55;;;9.20;59.90;;;;;;5055018;28;20029;-71
2020/12/18 10:07:49;;;;;;;62.95;24.20;;;9.20;60.00;;;;;;5034537;28;20095;-71
2020/12/18 10:10:16;;;;;;;55.22;21.25;;;9.30;60.10;;;;;;5035893;28;20033;-71
2020/12/18 10:12:42;;;;;;;53.53;20.30;;;9.30;60.00;;;;;;5035821;28;20025;-72
2020/12/18 10:15:08;;;;;;;49.70;19.25;;;9.30;59.90;;;;;;5036070;28;20379;-71
2020/12/18 10:17:33;;;;;;;46.85;18.90;;;9.40;59.80;;;;;;5043009;28;20027;-71
2020/12/18 10:19:59;;;;;;;48.40;19.98;;;9.50;59.80;;;;;;5063704;28;20434;-71
2020/12/18 10:22:25;;;;;;;48.88;19.65;;;9.60;59.80;;;;;;5075632;28;20019;-71
2020/12/18 10:24:52;;;;;;;45.40;19.13;;;9.60;59.60;;;;;;5060348;28;20052;-69
2020/12/18 10:27:18;;;;;;;50.40;20.10;;;9.60;59.50;;;;;;5054749;28;20041;-69
2020/12/18 10:29:44;;;;;;;46.92;20.05;;;9.70;59.40;;;;;;5055622;28;20501;-69
2020/12/18 10:32:10;;;;;;;47.00;19.55;;;9.70;59.20;;;;;;5055761;28;20044;-70
2020/12/18 10:34:36;;;;;;;52.25;22.48;;;9.80;59.10;;;;;;5057127;28;20057;-71
2020/12/18 10:37:02;;;;;;;59.03;23.27;;;9.80;59.00;;;;;;5052706;28;20478;-70
2020/12/18 10:39:28;;;;;;;50.20;21.25;;;9.90;58.90;;;;;;5054290;28;20123;-70
2020/12/18 10:41:57;;;;;;;51.25;20.60;;;9.90;58.70;;;;;;5054125;28;20105;-71
2020/12/18 10:44:23;;;;;;;48.65;20.77;;;9.90;58.70;;;;;;5053441;28;20096;-70
2020/12/18 10:46:49;;;;;;;40.15;19.35;;;9.90;58.40;;;;;;5052918;28;20124;-70
2020/12/18 10:49:17;;;;;;;45.92;20.58;;;9.90;58.20;;;;;;5053029;28;20116;-70
2020/12/18 10:51:44;;;;;;;37.03;18.20;;;9.90;58.10;;;;;;5053878;28;20025;-70
2020/12/18 10:54:10;;;;;;;40.25;18.98;;;9.80;57.90;;;;;;5053423;28;20025;-70
2020/12/18 10:56:43;;;;;;;33.42;16.73;;;9.80;58.00;;;;;;5053422;28;20029;-70
2020/12/18 10:59:10;;;;;;;34.47;16.33;;;9.80;58.30;;;;;;5053702;28;20033;-71
2020/12/18 11:01:36;;;;;;;44.38;17.92;;;9.80;58.50;;;;;;5053818;28;20039;-71
2020/12/18 11:04:03;;;;;;;35.45;18.15;;;9.80;58.50;;;;;;5052566;28;20025;-71
2020/12/18 11:06:29;;;;;;;30.80;15.15;;;9.80;58.50;;;;;;5053821;28;20486;-71
2020/12/18 11:08:55;;;;;;;26.45;14.85;;;9.80;58.40;;;;;;5053879;28;20417;-73
2020/12/18 11:11:20;;;;;;;30.85;16.15;;;9.80;58.40;;;;;;5053911;28;20078;-71
2020/12/18 11:13:46;;;;;;;27.73;13.98;;;9.90;58.40;;;;;;5053322;28;20033;-72
2020/12/18 11:16:12;;;;;;;28.30;15.73;;;9.90;58.30;;;;;;5053514;28;20489;-71
2020/12/18 11:18:38;;;;;;;31.45;17.40;;;10.00;58.30;;;;;;5059282;28;20029;-72
2020/12/18 11:21:05;;;;;;;34.15;17.55;;;10.00;58.30;;;;;;5073674;28;20382;-72
2020/12/18 11:23:32;;;;;;;39.78;18.85;;;10.10;58.20;;;;;;5074316;28;20359;-72
2020/12/18 11:25:58;;;;;;;37.80;18.10;;;10.10;58.10;;;;;;5053160;28;20126;-72
2020/12/18 11:28:24;;;;;;;28.02;16.00;;;10.20;58.00;;;;;;5054050;28;20470;-72
2020/12/18 11:30:50;;;;;;;28.27;14.80;;;10.20;57.90;;;;;;5053632;28;20029;-74
2020/12/18 11:33:16;;;;;;;27.10;15.23;;;10.30;57.90;;;;;;5053157;28;20025;-73
2020/12/18 11:35:41;;;;;;;27.27;12.95;;;10.30;57.50;;;;;;5052382;28;20540;-72
2020/12/18 11:38:07;;;;;;;22.67;13.40;;;10.40;57.60;;;;;;5052146;28;20029;-74
2020/12/18 11:40:33;;;;;;;26.30;14.27;;;10.40;57.40;;;;;;5052685;28;20029;-74
2020/12/18 11:42:59;;;;;;;30.75;16.10;;;10.40;57.40;;;;;;5068416;28;20400;-73
2020/12/18 11:45:25;;;;;;;33.00;17.58;;;10.40;57.30;;;;;;5053697;28;20021;-73
2020/12/18 11:47:51;;;;;;;37.17;20.05;;;10.40;57.30;;;;;;5054503;28;20406;-73
2020/12/18 11:50:17;;;;;;;31.38;18.27;;;10.50;57.10;;;;;;5053769;28;20029;-73
2020/12/18 11:52:43;;;;;;;28.77;18.10;;;10.50;57.00;;;;;;5053816;28;20033;-73
2020/12/18 11:55:09;;;;;;;30.02;16.60;;;10.50;56.90;;;;;;5054081;28;20094;-73
2020/12/18 11:57:35;;;;;;;27.65;16.63;;;10.40;56.70;;;;;;5053799;28;20031;-73
2020/12/18 12:00:00;;;;;;;25.92;14.68;;;10.40;56.70;;;;;;5053895;28;20067;-73
2020/12/18 12:02:26;;;;;;;23.42;13.48;;;10.40;56.80;;;;;;5053730;28;20032;-73
2020/12/18 12:04:52;;;;;;;37.88;18.73;;;10.40;57.00;;;;;;5053480;28;20045;-73
2020/12/18 12:07:17;;;;;;;27.30;14.98;;;10.40;57.10;;;;;;5053793;28;20017;-73
2020/12/18 12:09:43;;;;;;;24.63;12.68;;;10.40;57.10;;;;;;5053539;28;20056;-73
2020/12/18 12:12:12;;;;;;;22.63;12.05;;;10.40;57.00;;;;;;5053487;28;20094;-73
2020/12/18 12:14:38;;;;;;;21.13;11.50;;;10.40;56.90;;;;;;5053491;28;20386;-73
2020/12/18 12:17:04;;;;;;;22.27;11.77;;;10.40;57.00;;;;;;5052308;28;20021;-73
2020/12/18 12:19:30;;;;;;;19.17;11.55;;;10.40;57.70;;;;;;5053407;28;20017;-73
2020/12/18 12:21:56;;;;;;;21.85;12.07;;;10.40;56.90;;;;;;5053380;28;20091;-73
2020/12/18 12:24:22;;;;;;;21.42;11.77;;;10.30;56.90;;;;;;5053110;28;20063;-73
2020/12/18 12:26:48;;;;;;;29.50;15.75;;;10.40;57.00;;;;;;5052128;28;20037;-73
2020/12/18 12:29:14;;;;;;;31.90;18.00;;;10.40;56.90;;;;;;5053380;28;20463;-73
2020/12/18 12:31:40;;;;;;;36.90;19.35;;;10.30;56.70;;;;;;5053173;28;20029;-73
2020/12/18 12:34:06;;;;;;;37.60;20.50;;;10.30;56.60;;;;;;5053527;28;20057;-73
2020/12/18 12:36:32;;;;;;;36.42;21.23;;;10.30;56.40;;;;;;5053476;28;20108;-73
2020/12/18 12:38:58;;;;;;;36.92;19.70;;;10.20;56.40;;;;;;5053337;28;20113;-73